Time;durP1;ratioP1;P1;durP2;ratioP2;P2;SDS_P1;SDS_P2;PMS_P1;PMS_P2;Temp;Humidity;BMP_temperature;BMP_pressure;BME280_temperature;BME280_humidity;BME280_pressure;Samples;Min_cycle;Max_cycle;Signal;HPM_P1;HPM_P2
2023/08/20 00:00:29;;;;;;;20.15;13.18;;;691.20;2432.00;;;;;;5019365;28;20037;-72
2023/08/20 00:03:03;;;;;;;17.05;13.32;;;691.30;2432.00;;;;;;5026926;28;20113;-70
2023/08/20 00:05:30;;;;;;;14.45;12.95;;;691.20;2432.00;;;;;;5017382;28;20061;-71
2023/08/20 00:07:56;;;;;;;17.88;12.93;;;691.20;2432.00;;;;;;5019756;28;20070;-71
2023/08/20 00:10:22;;;;;;;18.42;13.30;;;691.30;2432.00;;;;;;5003647;28;20199;-71
2023/08/20 00:12:47;;;;;;;19.85;12.13;;;691.20;2432.00;;;;;;5029796;28;20021;-70
2023/08/20 00:15:13;;;;;;;23.08;14.32;;;691.30;2432.00;;;;;;5005552;28;20105;-71
2023/08/20 00:17:40;;;;;;;18.60;13.45;;;691.20;2432.00;;;;;;5024944;28;20490;-71
2023/08/20 00:20:10;;;;;;;15.63;13.48;;;691.20;2432.00;;;;;;5008580;28;20558;-72
2023/08/20 00:22:36;;;;;;;18.90;14.07;;;691.20;2432.00;;;;;;5023719;28;20025;-71
2023/08/20 00:25:06;;;;;;;16.23;13.70;;;691.20;2432.00;;;;;;5021826;28;20026;-72
2023/08/20 00:27:32;;;;;;;21.08;15.00;;;691.20;2432.00;;;;;;5026818;28;20029;-70
2023/08/20 00:29:58;;;;;;;16.70;13.32;;;691.20;2432.00;;;;;;5021630;28;20399;-71
2023/08/20 00:32:24;;;;;;;18.17;14.60;;;691.20;2432.00;;;;;;5020304;28;20406;-72
2023/08/20 00:34:50;;;;;;;18.45;14.35;;;691.20;2432.00;;;;;;5025157;28;20033;-72
2023/08/20 00:37:16;;;;;;;20.88;14.57;;;691.30;2432.00;;;;;;5015059;28;20022;-72
2023/08/20 00:39:42;;;;;;;20.88;14.05;;;691.30;2432.00;;;;;;5016989;28;20069;-71
2023/08/20 00:42:08;;;;;;;19.23;13.98;;;691.20;2432.00;;;;;;5007800;28;20029;-71
2023/08/20 00:44:34;;;;;;;26.02;14.77;;;666.50;2432.00;;;;;;5025817;28;20467;-73
2023/08/20 00:47:02;;;;;;;16.25;14.63;;;666.50;2432.00;;;;;;5027514;28;20029;-75
2023/08/20 00:49:29;;;;;;;18.48;13.77;;;666.50;2432.00;;;;;;5021142;28;20026;-70
2023/08/20 00:51:55;;;;;;;18.20;14.93;;;666.50;2432.00;;;;;;5023466;28;20060;-71
2023/08/20 00:54:22;;;;;;;17.20;14.75;;;666.50;2432.00;;;;;;5022584;28;20396;-72
2023/08/20 00:56:49;;;;;;;19.63;14.07;;;666.50;2432.00;;;;;;5025206;28;20527;-70
2023/08/20 00:59:15;;;;;;;16.80;14.75;;;666.50;2432.00;;;;;;5019465;28;20030;-72
2023/08/20 01:01:40;;;;;;;17.48;13.90;;;666.50;2432.00;;;;;;5010147;28;20041;-70
2023/08/20 01:04:06;;;;;;;17.50;15.35;;;666.50;2432.00;;;;;;5021273;28;20041;-71
2023/08/20 01:07:05;;;;;;;20.42;14.35;;;666.40;2432.00;;;;;;5020597;28;20042;-71
2023/08/20 01:09:43;;;;;;;17.85;14.45;;;666.40;2432.00;;;;;;5002852;28;20499;-72
2023/08/20 01:12:10;;;;;;;17.27;14.98;;;666.30;2432.00;;;;;;5010896;28;20110;-70
2023/08/20 01:14:36;;;;;;;19.80;15.30;;;666.30;2432.00;;;;;;5022440;28;20510;-71
2023/08/20 01:17:02;;;;;;;18.35;15.60;;;;;;;;;;5016551;28;20029;-71
2023/08/20 01:19:28;;;;;;;24.65;15.75;;;666.10;2432.00;;;;;;5016718;28;20513;-70
2023/08/20 01:21:59;;;;;;;19.70;16.63;;;666.20;2432.00;;;;;;5022048;28;20034;-71
2023/08/20 01:24:39;;;;;;;21.23;15.43;;;666.10;2432.00;;;;;;5025108;28;20022;-71
2023/08/20 01:27:16;;;;;;;18.10;15.88;;;666.10;2432.00;;;;;;5020669;28;20030;-70
2023/08/20 01:29:42;;;;;;;20.45;16.60;;;666.10;2432.00;;;;;;5012293;28;20499;-73
2023/08/20 01:32:08;;;;;;;26.50;16.95;;;666.00;2432.00;;;;;;5019703;28;20029;-71
2023/08/20 01:34:34;;;;;;;22.48;16.35;;;666.10;2432.00;;;;;;5017687;28;20105;-72
2023/08/20 01:36:59;;;;;;;21.73;15.85;;;666.00;2432.00;;;;;;5024398;28;20080;-71
2023/08/20 01:39:25;;;;;;;18.50;15.30;;;666.00;2432.00;;;;;;5015787;28;20032;-71
2023/08/20 01:41:51;;;;;;;21.40;16.63;;;666.00;2432.00;;;;;;5025544;28;20017;-72
2023/08/20 01:44:17;;;;;;;18.52;16.08;;;666.00;2432.00;;;;;;5023970;28;20033;-71
2023/08/20 01:46:42;;;;;;;20.17;17.13;;;666.00;2432.00;;;;;;5016597;28;20014;-71
2023/08/20 01:49:08;;;;;;;18.38;16.20;;;665.90;2432.00;;;;;;5016706;28;20033;-71
2023/08/20 01:51:34;;;;;;;21.75;16.15;;;665.80;2432.00;;;;;;5012541;28;20037;-71
2023/08/20 01:53:59;;;;;;;21.95;16.83;;;665.80;2432.00;;;;;;5018721;28;20021;-71
2023/08/20 01:56:25;;;;;;;25.52;17.52;;;665.60;2432.00;;;;;;5023918;28;20034;-71
2023/08/20 01:58:51;;;;;;;23.25;17.67;;;640.80;2432.00;;;;;;5017257;28;20057;-71
2023/08/20 02:01:16;;;;;;;23.73;17.40;;;640.60;2432.00;;;;;;5017249;28;20026;-71
2023/08/20 02:03:42;;;;;;;27.55;18.00;;;640.50;2432.00;;;;;;5021968;28;20029;-71
2023/08/20 02:06:08;;;;;;;24.67;18.63;;;640.20;2432.00;;;;;;5015949;28;20036;-71
2023/08/20 02:08:33;;;;;;;21.15;18.92;;;640.20;2432.00;;;;;;4998943;28;20041;-71
2023/08/20 02:11:01;;;;;;;21.52;18.35;;;;;;;;;;5024816;28;20120;-71
2023/08/20 02:13:27;;;;;;;33.33;20.50;;;;;;;;;;5020074;28;20029;-72
2023/08/20 02:16:03;;;;;;;21.25;18.85;;;640.00;2432.00;;;;;;5023917;28;20057;-71
2023/08/20 02:18:30;;;;;;;24.40;19.02;;;615.30;2432.00;;;;;;5020504;28;20057;-74
2023/08/20 02:20:56;;;;;;;24.02;19.35;;;615.20;2432.00;;;;;;5001853;28;20121;-71
2023/08/20 02:23:22;;;;;;;24.50;18.95;;;615.20;2432.00;;;;;;5025840;28;20539;-71
2023/08/20 02:25:48;;;;;;;21.58;19.27;;;615.10;2432.00;;;;;;5022058;28;20155;-70
2023/08/20 02:28:14;;;;;;;21.40;18.88;;;615.00;2432.00;;;;;;5027491;28;20025;-71
2023/08/20 02:30:45;;;;;;;20.75;17.85;;;614.90;2432.00;;;;;;5021476;28;20025;-71
2023/08/20 02:33:11;;;;;;;21.83;19.25;;;614.90;2432.00;;;;;;5020955;28;20040;-70
2023/08/20 02:35:38;;;;;;;23.08;19.42;;;614.90;2432.00;;;;;;5031845;28;20157;-71
2023/08/20 02:38:04;;;;;;;28.85;20.23;;;614.90;2432.00;;;;;;5023258;28;20104;-72
2023/08/20 02:40:31;;;;;;;22.65;20.08;;;615.10;2432.00;;;;;;5027267;28;20383;-71
2023/08/20 02:42:56;;;;;;;22.25;18.95;;;615.00;2432.00;;;;;;5027796;28;20129;-70
2023/08/20 02:45:22;;;;;;;25.13;19.65;;;614.90;2432.00;;;;;;5024720;28;20127;-71
2023/08/20 02:47:49;;;;;;;23.08;19.55;;;615.10;2432.00;;;;;;5027067;28;20029;-72
2023/08/20 02:50:15;;;;;;;23.73;19.70;;;615.00;2432.00;;;;;;5024248;28;20045;-72
2023/08/20 02:52:42;;;;;;;21.27;18.27;;;615.10;2432.00;;;;;;5022301;28;20026;-71
2023/08/20 02:55:08;;;;;;;25.58;18.65;;;615.10;2432.00;;;;;;5029713;28;20033;-70
2023/08/20 02:57:34;;;;;;;27.95;19.95;;;615.10;2432.00;;;;;;5021884;28;20032;-70
2023/08/20 03:00:00;;;;;;;22.08;19.77;;;615.00;2432.00;;;;;;5025978;28;20104;-71
2023/08/20 03:02:26;;;;;;;26.48;19.45;;;615.10;2432.00;;;;;;5020210;28;20030;-71
2023/08/20 03:04:52;;;;;;;22.73;18.58;;;615.20;2432.00;;;;;;5026069;28;20108;-71
2023/08/20 03:07:18;;;;;;;21.55;18.95;;;615.10;2432.00;;;;;;5023057;28;20041;-71
2023/08/20 03:09:44;;;;;;;25.80;20.00;;;615.10;2432.00;;;;;;5025600;28;20076;-71
2023/08/20 03:12:10;;;;;;;29.20;19.55;;;615.30;2432.00;;;;;;5023616;28;20525;-70
2023/08/20 03:14:35;;;;;;;20.83;18.55;;;615.10;2432.00;;;;;;5029985;28;20025;-73
2023/08/20 03:17:01;;;;;;;25.75;20.17;;;615.00;2432.00;;;;;;5035983;28;20143;-72
2023/08/20 03:19:29;;;;;;;23.15;18.98;;;615.00;2432.00;;;;;;5024718;28;20029;-71
2023/08/20 03:21:55;;;;;;;27.13;19.60;;;614.90;2432.00;;;;;;5016038;28;20105;-72
2023/08/20 03:24:21;;;;;;;23.83;19.98;;;614.90;2432.00;;;;;;5024978;28;20108;-71
2023/08/20 03:26:47;;;;;;;26.67;19.75;;;615.00;2432.00;;;;;;5035355;28;20032;-72
2023/08/20 03:29:13;;;;;;;26.90;20.88;;;615.00;2432.00;;;;;;5035544;28;20056;-71
2023/08/20 03:31:38;;;;;;;25.35;20.63;;;615.10;2432.00;;;;;;5034864;28;20037;-71
2023/08/20 03:34:04;;;;;;;25.38;19.35;;;615.10;2432.00;;;;;;5025471;28;20040;-70
2023/08/20 03:36:30;;;;;;;23.63;21.20;;;615.00;2432.00;;;;;;5017327;28;20103;-71
2023/08/20 03:38:56;;;;;;;25.08;20.95;;;614.90;2432.00;;;;;;5035222;28;20021;-73
2023/08/20 03:41:21;;;;;;;29.23;21.23;;;614.80;2432.00;;;;;;5035201;28;20026;-71
2023/08/20 03:43:47;;;;;;;24.40;19.92;;;615.00;2432.00;;;;;;5017131;28;20056;-71
2023/08/20 03:46:13;;;;;;;25.15;20.73;;;615.00;2432.00;;;;;;5035248;28;20060;-71
2023/08/20 03:48:38;;;;;;;23.70;20.40;;;615.10;2432.00;;;;;;5035177;28;20101;-71
2023/08/20 03:51:04;;;;;;;22.85;20.30;;;614.90;2432.00;;;;;;5034780;28;20026;-72
2023/08/20 03:53:30;;;;;;;23.80;21.30;;;615.00;2432.00;;;;;;5035273;28;20100;-71
2023/08/20 03:55:55;;;;;;;25.38;20.42;;;615.10;2432.00;;;;;;5016846;28;20040;-72
2023/08/20 03:58:21;;;;;;;25.48;20.55;;;615.30;2432.00;;;;;;5035113;28;20101;-71
2023/08/20 04:00:47;;;;;;;24.65;22.02;;;615.30;2432.00;;;;;;5034729;28;20391;-71
2023/08/20 04:03:14;;;;;;;27.90;21.33;;;615.30;2432.00;;;;;;5017275;28;20021;-72
2023/08/20 04:05:39;;;;;;;25.02;20.17;;;615.30;2432.00;;;;;;5034450;28;20030;-71
2023/08/20 04:08:06;;;;;;;25.83;20.92;;;615.30;2432.00;;;;;;5034526;28;20144;-72
2023/08/20 04:10:32;;;;;;;23.98;21.42;;;640.10;2432.00;;;;;;5034545;28;20038;-71
2023/08/20 04:12:58;;;;;;;32.38;22.58;;;615.30;2432.00;;;;;;5034810;28;20083;-72
2023/08/20 04:15:24;;;;;;;28.48;21.80;;;615.30;2432.00;;;;;;5034510;28;20076;-72
2023/08/20 04:17:50;;;;;;;30.08;21.63;;;615.30;2432.00;;;;;;5034557;28;20384;-72
2023/08/20 04:20:15;;;;;;;28.80;22.17;;;640.00;2432.00;;;;;;5016669;28;20021;-71
2023/08/20 04:22:42;;;;;;;27.77;20.45;;;640.00;2432.00;;;;;;5016281;28;20199;-72
2023/08/20 04:25:08;;;;;;;24.85;22.25;;;640.00;2432.00;;;;;;5034574;28;20017;-75
2023/08/20 04:27:34;;;;;;;25.98;21.80;;;640.00;2432.00;;;;;;5034315;28;20025;-71
2023/08/20 04:29:59;;;;;;;25.83;21.98;;;640.00;2432.00;;;;;;5034282;28;20036;-72
2023/08/20 04:32:25;;;;;;;24.10;21.23;;;615.30;2432.00;;;;;;5034309;28;20029;-72
2023/08/20 04:34:52;;;;;;;25.23;21.40;;;640.00;2432.00;;;;;;5031353;28;20088;-72
2023/08/20 04:37:19;;;;;;;29.90;23.08;;;640.10;2432.00;;;;;;5022273;28;20144;-72
2023/08/20 04:39:45;;;;;;;24.20;21.02;;;640.10;2432.00;;;;;;5020975;28;20029;-71
2023/08/20 04:42:11;;;;;;;25.17;22.58;;;640.20;2432.00;;;;;;5021086;28;20038;-72
2023/08/20 04:44:36;;;;;;;27.02;21.73;;;640.20;2432.00;;;;;;5016630;28;20030;-71
2023/08/20 04:47:02;;;;;;;25.80;21.55;;;640.20;2432.00;;;;;;5023469;28;20136;-71
2023/08/20 04:49:29;;;;;;;28.13;23.95;;;640.20;2432.00;;;;;;5027460;28;20037;-71
2023/08/20 04:51:55;;;;;;;26.20;22.65;;;640.10;2432.00;;;;;;5024942;28;20030;-72
2023/08/20 04:54:20;;;;;;;23.35;20.95;;;640.20;2432.00;;;;;;5024310;28;20099;-72
2023/08/20 04:56:46;;;;;;;25.10;22.13;;;640.20;2432.00;;;;;;5025228;28;20021;-70
2023/08/20 04:59:12;;;;;;;25.85;21.23;;;640.20;2432.00;;;;;;5021548;28;20444;-73
2023/08/20 05:01:39;;;;;;;25.92;22.48;;;640.30;2432.00;;;;;;5023083;28;20030;-72
2023/08/20 05:04:05;;;;;;;27.20;21.23;;;640.40;2432.00;;;;;;5018576;28;20033;-72
2023/08/20 05:06:30;;;;;;;26.13;21.20;;;640.30;2432.00;;;;;;5023497;28;20064;-74
2023/08/20 05:08:56;;;;;;;24.38;21.77;;;640.40;2432.00;;;;;;5017266;28;20491;-73
2023/08/20 05:11:22;;;;;;;26.00;21.15;;;640.50;2432.00;;;;;;5017434;28;20072;-72
2023/08/20 05:13:49;;;;;;;24.45;21.27;;;640.50;2432.00;;;;;;5017045;28;20022;-72
2023/08/20 05:16:15;;;;;;;23.95;20.08;;;640.60;2432.00;;;;;;5014560;28;20022;-72
2023/08/20 05:18:42;;;;;;;22.30;19.95;;;640.70;2432.00;;;;;;5016778;28;20037;-74
2023/08/20 05:21:08;;;;;;;24.20;20.73;;;640.70;2432.00;;;;;;5008236;28;20546;-73
2023/08/20 05:23:34;;;;;;;24.08;21.15;;;640.90;2432.00;;;;;;4998220;28;20442;-72
2023/08/20 05:25:59;;;;;;;22.70;20.30;;;640.90;2432.00;;;;;;4999843;28;20037;-74
2023/08/20 05:28:26;;;;;;;25.25;21.33;;;640.90;2432.00;;;;;;5020326;28;20475;-71
2023/08/20 05:30:56;;;;;;;28.65;21.80;;;665.60;2432.00;;;;;;5017673;28;20045;-71
2023/08/20 05:33:23;;;;;;;27.55;21.05;;;665.60;2432.00;;;;;;5026979;28;20431;-71
2023/08/20 05:35:49;;;;;;;27.98;23.33;;;665.70;2432.00;;;;;;5008353;28;20135;-74
2023/08/20 05:38:15;;;;;;;25.75;22.98;;;665.70;2432.00;;;;;;5024899;28;20025;-74
2023/08/20 05:40:41;;;;;;;25.65;22.85;;;665.60;2432.00;;;;;;5001834;28;20124;-73
2023/08/20 05:43:06;;;;;;;25.30;22.58;;;665.60;2432.00;;;;;;5022866;28;20387;-71
2023/08/20 05:45:32;;;;;;;29.40;23.80;;;665.90;2432.00;;;;;;5022445;28;20096;-73
2023/08/20 05:47:58;;;;;;;27.52;24.65;;;665.70;2432.00;;;;;;5022033;28;20067;-73
2023/08/20 05:50:24;;;;;;;26.70;23.55;;;665.90;2432.00;;;;;;5019133;28;20041;-73
2023/08/20 05:52:50;;;;;;;28.10;23.25;;;;;;;;;;5020044;28;20037;-73
2023/08/20 05:55:16;;;;;;;26.92;21.58;;;;;;;;;;5021803;28;20112;-74
2023/08/20 05:57:42;;;;;;;24.35;20.58;;;;;;;;;;5024330;28;20038;-74
2023/08/20 06:00:10;;;;;;;23.45;19.83;;;666.50;2432.00;;;;;;5024111;28;20076;-72
2023/08/20 06:02:36;;;;;;;24.42;20.58;;;666.50;2432.00;;;;;;5026172;28;20487;-73
2023/08/20 06:05:04;;;;;;;22.30;19.52;;;666.50;2432.00;;;;;;5026419;28;20041;-72
2023/08/20 06:07:30;;;;;;;23.83;20.95;;;691.30;2432.00;;;;;;5022844;28;20053;-73
2023/08/20 06:09:56;;;;;;;23.98;20.60;;;691.40;2432.00;;;;;;5022672;28;20030;-71
2023/08/20 06:12:23;;;;;;;23.70;18.65;;;691.50;2432.00;;;;;;5018282;28;20379;-72
2023/08/20 06:14:49;;;;;;;22.95;19.05;;;691.70;2432.00;;;;;;5028961;28;20056;-73
2023/08/20 06:17:15;;;;;;;23.20;19.95;;;691.70;2432.00;;;;;;5015793;28;20548;-72
2023/08/20 06:19:40;;;;;;;21.60;18.85;;;691.80;2432.00;;;;;;5020051;28;20024;-73
2023/08/20 06:22:06;;;;;;;24.88;19.02;;;691.90;2432.00;;;;;;5025812;28;20395;-71
2023/08/20 06:24:32;;;;;;;27.27;20.83;;;692.00;2432.00;;;;;;5024468;28;20022;-71
2023/08/20 06:26:58;;;;;;;25.65;18.83;;;692.10;2432.00;;;;;;5017936;28;20096;-71
2023/08/20 06:29:23;;;;;;;27.48;19.90;;;716.80;2432.00;;;;;;5020317;28;20100;-71
2023/08/20 06:31:50;;;;;;;23.35;18.83;;;717.00;2432.00;;;;;;5026308;28;20106;-73
2023/08/20 06:34:16;;;;;;;22.75;19.23;;;717.10;2432.00;;;;;;5013921;28;20022;-72
2023/08/20 06:36:41;;;;;;;23.60;18.38;;;717.20;2432.00;;;;;;5023264;28;20084;-72
2023/08/20 06:39:07;;;;;;;22.25;18.77;;;717.30;2432.00;;;;;;5017719;28;20081;-72
2023/08/20 06:41:34;;;;;;;21.77;17.73;;;717.50;2432.00;;;;;;5001654;28;20038;-73
2023/08/20 06:43:59;;;;;;;19.42;17.38;;;717.60;2432.00;;;;;;5020768;28;20514;-74
2023/08/20 06:46:25;;;;;;;23.50;17.48;;;742.40;2432.00;;;;;;5019229;28;20088;-73
2023/08/20 06:48:51;;;;;;;19.70;17.73;;;;;;;;;;5025171;28;20056;-72
2023/08/20 06:51:21;;;;;;;20.80;17.38;;;742.70;2432.00;;;;;;5016693;28;20178;-71
2023/08/20 06:53:47;;;;;;;21.67;17.42;;;742.60;2432.00;;;;;;5020621;28;20025;-72
2023/08/20 06:56:13;;;;;;;21.08;17.83;;;743.00;2432.00;;;;;;5021803;28;20034;-72
2023/08/20 06:58:40;;;;;;;17.95;16.13;;;742.70;2432.00;;;;;;5014917;28;20426;-72
2023/08/20 07:01:09;;;;;;;20.90;17.25;;;743.00;2432.00;;;;;;5015302;28;20108;-72
2023/08/20 07:03:40;;;;;;;17.52;15.63;;;743.10;2432.00;;;;;;5024199;28;20018;-73
2023/08/20 07:06:07;;;;;;;20.02;15.73;;;743.10;2432.00;;;;;;5017604;28;20030;-72
2023/08/20 07:08:33;;;;;;;20.02;15.50;;;743.10;2432.00;;;;;;5017430;28;20050;-73
2023/08/20 07:10:59;;;;;;;23.10;16.58;;;;;;;;;;5026183;28;20412;-73
2023/08/20 07:13:25;;;;;;;23.98;17.00;;;768.10;2432.00;;;;;;5021161;28;20025;-75
2023/08/20 07:15:51;;;;;;;17.33;15.48;;;768.20;2432.00;;;;;;5023793;28;20037;-74
2023/08/20 07:18:17;;;;;;;18.60;16.20;;;768.40;2432.00;;;;;;5018860;28;20512;-75
2023/08/20 07:20:43;;;;;;;22.23;16.02;;;768.60;2432.00;;;;;;5024307;28;20108;-72
2023/08/20 07:23:09;;;;;;;20.35;15.77;;;768.60;2432.00;;;;;;5025741;28;20049;-73
2023/08/20 07:25:39;;;;;;;24.08;15.73;;;768.90;2432.00;;;;;;5019787;28;20112;-73
2023/08/20 07:28:06;;;;;;;19.80;17.05;;;768.90;2432.00;;;;;;5008918;28;20030;-73
2023/08/20 07:30:32;;;;;;;19.73;15.45;;;793.70;2432.00;;;;;;5025106;28;20124;-72
2023/08/20 07:32:57;;;;;;;19.23;16.00;;;794.00;2432.00;;;;;;5003201;28;20061;-72
2023/08/20 07:35:24;;;;;;;20.52;17.77;;;794.10;2432.00;;;;;;5026323;28;20372;-72
2023/08/20 07:37:50;;;;;;;19.17;15.68;;;794.20;2432.00;;;;;;5007347;28;20057;-74
2023/08/20 07:40:16;;;;;;;24.83;15.90;;;794.30;2432.00;;;;;;5021264;28;20045;-72
2023/08/20 07:42:42;;;;;;;20.48;15.57;;;794.50;2432.00;;;;;;5025970;28;20492;-72
2023/08/20 07:45:08;;;;;;;20.13;15.30;;;819.20;2432.00;;;;;;5026816;28;20057;-72
2023/08/20 07:47:39;;;;;;;16.00;14.00;;;819.30;2432.00;;;;;;5021729;28;20034;-73
2023/08/20 07:50:05;;;;;;;14.50;12.73;;;819.60;2432.00;;;;;;5024777;28;20510;-72
2023/08/20 07:52:32;;;;;;;16.05;12.57;;;819.70;2355.20;;;;;;5025045;28;20361;-73
2023/08/20 07:54:57;;;;;;;17.63;12.20;;;819.80;2329.60;;;;;;5020474;28;20026;-71
2023/08/20 07:57:23;;;;;;;16.52;13.35;;;820.10;2278.40;;;;;;5022742;28;20096;-73
2023/08/20 07:59:52;;;;;;;16.77;11.07;;;844.80;2252.80;;;;;;5017394;28;20025;-72
2023/08/20 08:02:19;;;;;;;15.45;11.55;;;;;;;;;;5023444;28;20080;-71
2023/08/20 08:04:44;;;;;;;14.93;11.55;;;845.00;2099.20;;;;;;5025308;28;20511;-72
2023/08/20 08:07:11;;;;;;;15.90;10.85;;;845.20;1996.80;;;;;;5019860;28;20072;-71
2023/08/20 08:09:37;;;;;;;16.05;12.20;;;845.00;2099.20;;;;;;5019727;28;20768;-71
2023/08/20 08:12:04;;;;;;;15.85;11.50;;;845.20;2124.80;;;;;;5020854;28;20073;-74
2023/08/20 08:14:29;;;;;;;13.13;11.45;;;845.50;2124.80;;;;;;5022385;28;20071;-73
2023/08/20 08:16:55;;;;;;;13.73;11.00;;;845.60;1945.60;;;;;;5004200;28;20033;-72
2023/08/20 08:19:21;;;;;;;12.25;10.90;;;845.50;1894.40;;;;;;5019814;28;20483;-72
2023/08/20 08:21:47;;;;;;;17.27;10.85;;;870.40;1894.40;;;;;;5014435;28;20153;-74
2023/08/20 08:24:13;;;;;;;12.45;10.32;;;870.60;1792.00;;;;;;5021646;28;20105;-73
2023/08/20 08:26:40;;;;;;;11.82;10.10;;;870.70;1817.60;;;;;;5024424;28;20025;-73
2023/08/20 08:29:07;;;;;;;16.70;11.10;;;870.80;1817.60;;;;;;5022861;28;20017;-74
2023/08/20 08:31:33;;;;;;;14.73;9.88;;;870.90;1868.80;;;;;;5007469;28;20040;-74
2023/08/20 08:33:59;;;;;;;11.98;9.65;;;870.60;1792.00;;;;;;5022308;28;20021;-76
2023/08/20 08:36:25;;;;;;;15.10;9.65;;;871.10;1740.80;;;;;;5016706;28;20598;-75
2023/08/20 08:38:54;;;;;;;14.60;9.90;;;870.50;1740.80;;;;;;5002865;28;20041;-72
2023/08/20 08:41:23;;;;;;;19.13;9.68;;;870.40;1792.00;;;;;;5019100;28;20022;-74
2023/08/20 08:43:49;;;;;;;15.93;10.00;;;870.90;1843.20;;;;;;5006035;28;20395;-73
2023/08/20 08:46:17;;;;;;;11.95;10.45;;;871.10;1792.00;;;;;;5013855;28;20056;-74
2023/08/20 08:48:44;;;;;;;16.33;10.98;;;871.00;1715.20;;;;;;5003952;28;20030;-73
2023/08/20 08:51:14;;;;;;;11.52;10.40;;;871.30;1792.00;;;;;;5007760;28;20124;-73
2023/08/20 08:53:43;;;;;;;11.90;10.05;;;896.10;1766.40;;;;;;5011217;28;20446;-73
2023/08/20 08:56:09;;;;;;;10.95;9.85;;;;;;;;;;5023561;28;20037;-72
2023/08/20 08:58:35;;;;;;;12.30;9.82;;;896.50;1740.80;;;;;;5023362;28;20056;-74
2023/08/20 09:01:01;;;;;;;13.52;9.55;;;896.70;1689.60;;;;;;5021092;28;20060;-74
2023/08/20 09:03:26;;;;;;;19.60;11.57;;;896.90;1689.60;;;;;;5023082;28;20025;-73
2023/08/20 09:06:00;;;;;;;14.00;11.15;;;896.90;1766.40;;;;;;5020074;28;20037;-74
2023/08/20 09:08:31;;;;;;;15.60;9.70;;;921.60;1740.80;;;;;;5000897;28;20050;-73
2023/08/20 09:10:58;;;;;;;13.60;10.25;;;921.70;1638.40;;;;;;5023956;28;20037;-73
2023/08/20 09:13:24;;;;;;;13.15;9.27;;;921.70;1664.00;;;;;;5014970;28;20051;-73
2023/08/20 09:15:54;;;;;;;10.98;9.20;;;921.90;1638.40;;;;;;5003370;28;20030;-73
2023/08/20 09:18:20;;;;;;;13.13;8.65;;;922.00;1612.80;;;;;;5016619;28;20022;-73
2023/08/20 09:20:51;;;;;;;18.13;8.88;;;922.00;1612.80;;;;;;5022726;28;20472;-73
2023/08/20 09:23:17;;;;;;;13.13;9.55;;;922.20;1536.00;;;;;;5023189;28;20104;-74
2023/08/20 09:25:44;;;;;;;11.98;8.43;;;922.20;1561.60;;;;;;5020055;28;20104;-73
2023/08/20 09:28:10;;;;;;;36.13;9.93;;;922.30;1561.60;;;;;;5024064;28;20502;-74
2023/08/20 09:30:36;;;;;;;11.05;8.60;;;922.20;1484.80;;;;;;5023682;28;20027;-73
2023/08/20 09:33:08;;;;;;;11.23;7.32;;;922.30;1484.80;;;;;;5018795;28;20040;-74
2023/08/20 09:35:34;;;;;;;10.52;8.27;;;922.30;1433.60;;;;;;5015621;28;20040;-75
2023/08/20 09:38:00;;;;;;;9.88;7.75;;;922.40;1408.00;;;;;;5024121;28;20030;-74
2023/08/20 09:40:27;;;;;;;12.15;7.65;;;947.20;1408.00;;;;;;5015794;28;20124;-73
2023/08/20 09:42:54;;;;;;;17.85;6.82;;;947.20;1382.40;;;;;;5014932;28;20084;-74
2023/08/20 09:45:21;;;;;;;9.85;7.28;;;947.30;1382.40;;;;;;5003604;28;20025;-78
2023/08/20 09:47:49;;;;;;;9.10;6.80;;;947.30;1331.20;;;;;;5020763;28;20095;-74
2023/08/20 09:50:21;;;;;;;9.13;7.07;;;947.20;1408.00;;;;;;5013173;28;20384;-75
2023/08/20 09:53:07;;;;;;;11.73;6.30;;;947.40;1356.80;;;;;;5022132;28;20101;-74
2023/08/20 09:55:38;;;;;;;11.35;7.00;;;947.70;1331.20;;;;;;5001569;28;20030;-75
2023/08/20 09:58:05;;;;;;;10.63;6.93;;;947.80;1331.20;;;;;;5024203;28;20100;-76
2023/08/20 10:00:32;;;;;;;9.05;6.57;;;947.70;1356.80;;;;;;5025399;28;20037;-77
2023/08/20 10:02:58;;;;;;;9.80;6.85;;;947.80;1356.80;;;;;;5000540;28;20410;-77
2023/08/20 10:05:24;;;;;;;9.32;6.45;;;948.00;1356.80;;;;;;4999283;28;20112;-76
2023/08/20 10:07:51;;;;;;;13.05;6.93;;;948.10;1382.40;;;;;;5023513;28;20042;-76
2023/08/20 10:10:18;;;;;;;11.52;6.28;;;948.10;1382.40;;;;;;5022017;28;20065;-76
2023/08/20 10:12:45;;;;;;;9.68;6.20;;;947.90;1382.40;;;;;;5007846;28;20084;-76
2023/08/20 10:15:14;;;;;;;7.45;6.07;;;948.10;1305.60;;;;;;5005615;28;20435;-78
2023/08/20 10:17:43;;;;;;;11.57;6.32;;;948.10;1280.00;;;;;;5023952;28;20029;-73
2023/08/20 10:20:10;;;;;;;8.48;5.70;;;947.80;1331.20;;;;;;5017668;28;20030;-74
2023/08/20 10:22:39;;;;;;;9.55;6.05;;;948.00;1254.40;;;;;;5018723;28;20064;-75
2023/08/20 10:25:25;;;;;;;8.65;5.95;;;947.90;1280.00;;;;;;5020358;28;20033;-75
2023/08/20 10:27:50;;;;;;;8.52;5.97;;;948.10;1254.40;;;;;;5008325;28;20083;-74
2023/08/20 10:30:20;;;;;;;11.48;5.90;;;972.90;1280.00;;;;;;5022092;28;20033;-74
2023/08/20 10:32:48;;;;;;;10.75;6.45;;;973.00;1228.80;;;;;;5024669;28;20479;-75
2023/08/20 10:35:22;;;;;;;12.93;6.60;;;973.10;1203.20;;;;;;5024393;28;20022;-72
2023/08/20 10:38:11;;;;;;;8.77;6.25;;;972.90;1228.80;;;;;;5022143;28;20038;-72
2023/08/20 10:40:56;;;;;;;7.55;6.60;;;973.00;1177.60;;;;;;5016194;28;20037;-71
2023/08/20 10:43:37;;;;;;;10.70;6.38;;;973.10;1254.40;;;;;;5023224;28;20024;-71
2023/08/20 10:46:19;;;;;;;10.20;7.43;;;973.10;1228.80;;;;;;5025571;28;20105;-72
2023/08/20 10:48:52;;;;;;;8.95;7.13;;;973.20;1280.00;;;;;;5023842;28;20021;-71
2023/08/20 10:51:25;;;;;;;9.48;7.75;;;973.50;1254.40;;;;;;5005197;28;20494;-71
2023/08/20 10:54:00;;;;;;;8.75;7.55;;;973.70;1254.40;;;;;;5025244;28;20022;-71
2023/08/20 10:56:43;;;;;;;13.82;8.25;;;973.70;1280.00;;;;;;5026605;28;20029;-72
2023/08/20 10:59:10;;;;;;;9.73;8.05;;;998.40;1305.60;;;;;;5030764;28;20156;-73
2023/08/20 11:01:36;;;;;;;12.57;8.30;;;998.40;1280.00;;;;;;5029748;28;20029;-71
2023/08/20 11:04:06;;;;;;;9.20;8.15;;;973.70;1280.00;;;;;;5022482;28;20040;-72
2023/08/20 11:06:32;;;;;;;13.50;7.55;;;998.40;1280.00;;;;;;5026298;28;20022;-73
2023/08/20 11:08:58;;;;;;;11.75;8.73;;;973.10;1280.00;;;;;;5020434;28;20048;-72
2023/08/20 11:11:24;;;;;;;12.88;9.10;;;948.10;1331.20;;;;;;5025203;28;20088;-71
2023/08/20 11:13:50;;;;;;;11.48;8.57;;;947.50;1433.60;;;;;;5018276;28;20463;-74
2023/08/20 11:16:16;;;;;;;10.80;8.73;;;947.20;1408.00;;;;;;4987699;28;20061;-73
2023/08/20 11:18:42;;;;;;;13.23;9.13;;;947.20;1408.00;;;;;;5021261;28;20032;-72
2023/08/20 11:21:08;;;;;;;9.80;8.10;;;922.50;1408.00;;;;;;5013938;28;20057;-73
2023/08/20 11:23:35;;;;;;;13.65;9.90;;;947.20;1382.40;;;;;;5032331;28;20570;-72
2023/08/20 11:26:02;;;;;;;13.48;8.43;;;947.90;1382.40;;;;;;5028917;28;20034;-72
2023/08/20 11:28:28;;;;;;;15.60;9.57;;;948.10;1331.20;;;;;;5025425;28;20048;-72
2023/08/20 11:30:55;;;;;;;11.65;8.25;;;972.90;1356.80;;;;;;5010766;28;20380;-73
2023/08/20 11:33:22;;;;;;;11.07;8.15;;;972.90;1408.00;;;;;;5021646;28;20088;-72
2023/08/20 11:35:49;;;;;;;10.48;8.43;;;973.10;1408.00;;;;;;5028939;28;20392;-74
2023/08/20 11:38:15;;;;;;;10.15;8.35;;;973.20;1408.00;;;;;;5027343;28;20025;-79
2023/08/20 11:40:41;;;;;;;11.20;8.48;;;973.20;1356.80;;;;;;5030812;28;20037;-74
2023/08/20 11:43:07;;;;;;;12.25;8.05;;;973.30;1356.80;;;;;;5025522;28;20472;-71
2023/08/20 11:45:43;;;;;;;11.15;8.18;;;973.50;1331.20;;;;;;5025281;28;20112;-72
2023/08/20 11:48:09;;;;;;;14.57;8.75;;;973.60;1356.80;;;;;;5019885;28;20022;-71
2023/08/20 11:50:37;;;;;;;12.63;8.63;;;973.30;1382.40;;;;;;5025993;28;20479;-74
2023/08/20 11:53:03;;;;;;;10.88;8.80;;;973.60;1331.20;;;;;;5025334;28;20096;-71
2023/08/20 11:55:30;;;;;;;10.55;8.20;;;973.20;1382.40;;;;;;5021552;28;20037;-73
2023/08/20 11:57:56;;;;;;;10.45;8.80;;;973.30;1356.80;;;;;;5024728;28;20033;-75
2023/08/20 12:00:29;;;;;;;10.68;8.63;;;973.30;1408.00;;;;;;5023428;28;20037;-71
2023/08/20 12:02:55;;;;;;;11.77;8.70;;;973.50;1356.80;;;;;;5025651;28;20392;-73
2023/08/20 12:05:28;;;;;;;11.80;9.45;;;973.60;1356.80;;;;;;5007842;28;20030;-72